sensor_id;sensor_type;location;lat;lon;timestamp;P1;durP1;ratioP1;P2;durP2;ratioP2
2257;SDS011;1136;51.574;7.706;2023-07-31T00:01:46;8.50;;;4.60;;
2257;SDS011;1136;51.574;7.706;2023-07-31T00:04:53;5.33;;;4.20;;
2257;SDS011;1136;51.574;7.706;2023-07-31T00:08:00;5.33;;;5.03;;
2257;SDS011;1136;51.574;7.706;2023-07-31T00:11:06;3.77;;;3.30;;
2257;SDS011;1136;51.574;7.706;2023-07-31T00:14:13;2.90;;;2.60;;
2257;SDS011;1136;51.574;7.706;2023-07-31T00:17:19;3.67;;;2.10;;
2257;SDS011;1136;51.574;7.706;2023-07-31T00:20:26;4.97;;;2.37;;
2257;SDS011;1136;51.574;7.706;2023-07-31T00:23:33;2.40;;;2.27;;
2257;SDS011;1136;51.574;7.706;2023-07-31T00:26:39;3.57;;;1.97;;
2257;SDS011;1136;51.574;7.706;2023-07-31T00:29:46;1.90;;;1.73;;
2257;SDS011;1136;51.574;7.706;2023-07-31T00:32:53;3.33;;;2.53;;
2257;SDS011;1136;51.574;7.706;2023-07-31T00:36:00;2.27;;;2.17;;
2257;SDS011;1136;51.574;7.706;2023-07-31T00:39:06;3.67;;;2.23;;
2257;SDS011;1136;51.574;7.706;2023-07-31T00:42:13;1.90;;;1.80;;
2257;SDS011;1136;51.574;7.706;2023-07-31T00:45:19;1.90;;;1.80;;
2257;SDS011;1136;51.574;7.706;2023-07-31T00:48:29;1.87;;;1.77;;
2257;SDS011;1136;51.574;7.706;2023-07-31T00:51:35;2.23;;;2.03;;
2257;SDS011;1136;51.574;7.706;2023-07-31T00:54:42;4.10;;;2.67;;
2257;SDS011;1136;51.574;7.706;2023-07-31T00:57:49;2.63;;;2.43;;
2257;SDS011;1136;51.574;7.706;2023-07-31T01:00:56;2.70;;;2.50;;
2257;SDS011;1136;51.574;7.706;2023-07-31T01:04:03;3.70;;;3.40;;
2257;SDS011;1136;51.574;7.706;2023-07-31T01:10:37;10.53;;;4.60;;
2257;SDS011;1136;51.574;7.706;2023-07-31T01:13:50;8.07;;;4.40;;
2257;SDS011;1136;51.574;7.706;2023-07-31T01:16:56;6.13;;;4.80;;
2257;SDS011;1136;51.574;7.706;2023-07-31T01:20:04;7.47;;;5.07;;
2257;SDS011;1136;51.574;7.706;2023-07-31T01:26:33;9.33;;;6.07;;
2257;SDS011;1136;51.574;7.706;2023-07-31T01:29:47;7.43;;;5.43;;
2257;SDS011;1136;51.574;7.706;2023-07-31T01:33:10;16.27;;;6.97;;
2257;SDS011;1136;51.574;7.706;2023-07-31T01:36:17;7.37;;;6.63;;
2257;SDS011;1136;51.574;7.706;2023-07-31T01:39:23;10.60;;;6.30;;
2257;SDS011;1136;51.574;7.706;2023-07-31T01:42:30;14.07;;;6.43;;
2257;SDS011;1136;51.574;7.706;2023-07-31T01:45:37;14.53;;;7.27;;
2257;SDS011;1136;51.574;7.706;2023-07-31T01:48:43;11.63;;;7.70;;
2257;SDS011;1136;51.574;7.706;2023-07-31T01:51:50;12.53;;;6.73;;
2257;SDS011;1136;51.574;7.706;2023-07-31T01:54:57;14.47;;;5.80;;
2257;SDS011;1136;51.574;7.706;2023-07-31T01:58:03;12.37;;;6.73;;
2257;SDS011;1136;51.574;7.706;2023-07-31T02:01:10;14.23;;;6.80;;
2257;SDS011;1136;51.574;7.706;2023-07-31T02:04:16;9.93;;;6.60;;
2257;SDS011;1136;51.574;7.706;2023-07-31T02:07:23;17.23;;;7.83;;
2257;SDS011;1136;51.574;7.706;2023-07-31T02:10:29;17.73;;;7.67;;
2257;SDS011;1136;51.574;7.706;2023-07-31T02:13:36;11.63;;;7.27;;
2257;SDS011;1136;51.574;7.706;2023-07-31T02:16:42;13.70;;;7.93;;
2257;SDS011;1136;51.574;7.706;2023-07-31T02:19:49;11.13;;;6.57;;
2257;SDS011;1136;51.574;7.706;2023-07-31T02:22:56;12.23;;;6.30;;
2257;SDS011;1136;51.574;7.706;2023-07-31T02:26:02;14.83;;;6.33;;
2257;SDS011;1136;51.574;7.706;2023-07-31T02:29:09;8.43;;;5.73;;
2257;SDS011;1136;51.574;7.706;2023-07-31T02:32:15;10.57;;;5.67;;
2257;SDS011;1136;51.574;7.706;2023-07-31T02:35:22;11.03;;;6.90;;
2257;SDS011;1136;51.574;7.706;2023-07-31T02:38:28;9.63;;;5.93;;
2257;SDS011;1136;51.574;7.706;2023-07-31T02:41:35;10.17;;;6.37;;
2257;SDS011;1136;51.574;7.706;2023-07-31T02:44:42;8.23;;;6.70;;
2257;SDS011;1136;51.574;7.706;2023-07-31T02:47:48;11.10;;;5.90;;
2257;SDS011;1136;51.574;7.706;2023-07-31T02:50:55;10.10;;;5.40;;
2257;SDS011;1136;51.574;7.706;2023-07-31T02:54:01;6.20;;;4.37;;
2257;SDS011;1136;51.574;7.706;2023-07-31T02:57:08;11.33;;;6.50;;
2257;SDS011;1136;51.574;7.706;2023-07-31T03:00:14;7.97;;;4.70;;
2257;SDS011;1136;51.574;7.706;2023-07-31T03:03:21;11.97;;;5.27;;
2257;SDS011;1136;51.574;7.706;2023-07-31T03:06:28;7.73;;;5.53;;
2257;SDS011;1136;51.574;7.706;2023-07-31T03:09:34;10.10;;;5.90;;
2257;SDS011;1136;51.574;7.706;2023-07-31T03:12:41;13.33;;;5.10;;
2257;SDS011;1136;51.574;7.706;2023-07-31T03:15:47;10.40;;;5.60;;
2257;SDS011;1136;51.574;7.706;2023-07-31T03:18:54;6.73;;;5.37;;
2257;SDS011;1136;51.574;7.706;2023-07-31T03:22:00;10.20;;;4.97;;
2257;SDS011;1136;51.574;7.706;2023-07-31T03:25:07;9.90;;;5.10;;
2257;SDS011;1136;51.574;7.706;2023-07-31T03:28:16;8.30;;;5.33;;
2257;SDS011;1136;51.574;7.706;2023-07-31T03:31:22;17.53;;;5.47;;
2257;SDS011;1136;51.574;7.706;2023-07-31T03:34:29;7.10;;;5.27;;
2257;SDS011;1136;51.574;7.706;2023-07-31T03:37:38;5.63;;;4.80;;
2257;SDS011;1136;51.574;7.706;2023-07-31T03:40:45;8.20;;;5.17;;
2257;SDS011;1136;51.574;7.706;2023-07-31T03:43:51;8.57;;;5.27;;
2257;SDS011;1136;51.574;7.706;2023-07-31T03:46:58;10.20;;;5.30;;
2257;SDS011;1136;51.574;7.706;2023-07-31T03:50:05;7.73;;;5.13;;
2257;SDS011;1136;51.574;7.706;2023-07-31T03:53:12;11.10;;;6.00;;
2257;SDS011;1136;51.574;7.706;2023-07-31T03:56:19;7.70;;;4.73;;
2257;SDS011;1136;51.574;7.706;2023-07-31T03:59:25;10.67;;;5.73;;
2257;SDS011;1136;51.574;7.706;2023-07-31T04:02:32;7.27;;;5.27;;
2257;SDS011;1136;51.574;7.706;2023-07-31T04:05:38;6.67;;;4.30;;
2257;SDS011;1136;51.574;7.706;2023-07-31T04:08:46;8.67;;;4.40;;
2257;SDS011;1136;51.574;7.706;2023-07-31T04:11:52;7.47;;;4.80;;
2257;SDS011;1136;51.574;7.706;2023-07-31T04:14:59;9.40;;;5.37;;
2257;SDS011;1136;51.574;7.706;2023-07-31T04:18:05;11.50;;;5.43;;
2257;SDS011;1136;51.574;7.706;2023-07-31T04:21:12;6.77;;;4.53;;
2257;SDS011;1136;51.574;7.706;2023-07-31T04:24:19;12.23;;;5.10;;
2257;SDS011;1136;51.574;7.706;2023-07-31T04:27:30;8.57;;;5.10;;
2257;SDS011;1136;51.574;7.706;2023-07-31T04:30:37;10.53;;;5.10;;
2257;SDS011;1136;51.574;7.706;2023-07-31T04:33:44;11.20;;;5.70;;
2257;SDS011;1136;51.574;7.706;2023-07-31T04:36:50;6.60;;;5.00;;
2257;SDS011;1136;51.574;7.706;2023-07-31T04:39:57;14.57;;;5.40;;
2257;SDS011;1136;51.574;7.706;2023-07-31T04:43:04;6.90;;;4.83;;
2257;SDS011;1136;51.574;7.706;2023-07-31T04:46:10;12.63;;;5.20;;
2257;SDS011;1136;51.574;7.706;2023-07-31T04:49:17;6.07;;;4.53;;
2257;SDS011;1136;51.574;7.706;2023-07-31T04:52:25;8.83;;;4.63;;
2257;SDS011;1136;51.574;7.706;2023-07-31T04:55:32;9.20;;;4.97;;
2257;SDS011;1136;51.574;7.706;2023-07-31T04:58:38;26.00;;;16.00;;
2257;SDS011;1136;51.574;7.706;2023-07-31T05:01:45;8.00;;;4.97;;
2257;SDS011;1136;51.574;7.706;2023-07-31T05:04:51;5.63;;;4.90;;
2257;SDS011;1136;51.574;7.706;2023-07-31T05:07:58;7.63;;;4.60;;
2257;SDS011;1136;51.574;7.706;2023-07-31T05:11:04;11.47;;;5.53;;
2257;SDS011;1136;51.574;7.706;2023-07-31T05:14:11;5.50;;;4.90;;
2257;SDS011;1136;51.574;7.706;2023-07-31T05:17:17;6.73;;;4.83;;
2257;SDS011;1136;51.574;7.706;2023-07-31T05:20:24;6.77;;;4.40;;
2257;SDS011;1136;51.574;7.706;2023-07-31T05:23:30;7.67;;;4.73;;
2257;SDS011;1136;51.574;7.706;2023-07-31T05:26:39;8.30;;;5.37;;
2257;SDS011;1136;51.574;7.706;2023-07-31T05:29:46;8.80;;;4.70;;
2257;SDS011;1136;51.574;7.706;2023-07-31T05:32:52;7.63;;;4.87;;
2257;SDS011;1136;51.574;7.706;2023-07-31T05:35:59;7.53;;;4.70;;
2257;SDS011;1136;51.574;7.706;2023-07-31T05:39:06;11.13;;;5.67;;
2257;SDS011;1136;51.574;7.706;2023-07-31T05:42:14;10.10;;;5.03;;
2257;SDS011;1136;51.574;7.706;2023-07-31T05:45:21;10.07;;;5.57;;
2257;SDS011;1136;51.574;7.706;2023-07-31T05:48:27;9.30;;;5.40;;
2257;SDS011;1136;51.574;7.706;2023-07-31T05:51:34;7.50;;;4.43;;
2257;SDS011;1136;51.574;7.706;2023-07-31T05:54:41;10.23;;;5.87;;
2257;SDS011;1136;51.574;7.706;2023-07-31T05:57:48;7.20;;;4.53;;
2257;SDS011;1136;51.574;7.706;2023-07-31T06:00:55;15.53;;;4.63;;
2257;SDS011;1136;51.574;7.706;2023-07-31T06:04:01;7.70;;;5.23;;
2257;SDS011;1136;51.574;7.706;2023-07-31T06:07:09;8.10;;;4.97;;
2257;SDS011;1136;51.574;7.706;2023-07-31T06:10:17;13.73;;;6.20;;
2257;SDS011;1136;51.574;7.706;2023-07-31T06:13:23;8.73;;;5.90;;
2257;SDS011;1136;51.574;7.706;2023-07-31T06:16:30;11.00;;;5.77;;
2257;SDS011;1136;51.574;7.706;2023-07-31T06:19:36;7.33;;;5.73;;
2257;SDS011;1136;51.574;7.706;2023-07-31T06:22:43;7.60;;;5.03;;
2257;SDS011;1136;51.574;7.706;2023-07-31T06:25:50;5.57;;;4.90;;
2257;SDS011;1136;51.574;7.706;2023-07-31T06:28:56;10.63;;;5.60;;
2257;SDS011;1136;51.574;7.706;2023-07-31T06:32:03;10.43;;;5.60;;
2257;SDS011;1136;51.574;7.706;2023-07-31T06:35:10;6.77;;;5.93;;
2257;SDS011;1136;51.574;7.706;2023-07-31T06:38:21;15.57;;;6.10;;
2257;SDS011;1136;51.574;7.706;2023-07-31T06:41:28;19.50;;;7.43;;
2257;SDS011;1136;51.574;7.706;2023-07-31T06:44:35;8.03;;;6.90;;
2257;SDS011;1136;51.574;7.706;2023-07-31T06:47:41;7.20;;;6.50;;
2257;SDS011;1136;51.574;7.706;2023-07-31T06:50:51;9.60;;;6.27;;
2257;SDS011;1136;51.574;7.706;2023-07-31T06:53:57;6.13;;;5.53;;
2257;SDS011;1136;51.574;7.706;2023-07-31T06:57:04;7.37;;;6.23;;
2257;SDS011;1136;51.574;7.706;2023-07-31T07:00:11;6.43;;;5.87;;
2257;SDS011;1136;51.574;7.706;2023-07-31T07:03:18;8.67;;;6.13;;
2257;SDS011;1136;51.574;7.706;2023-07-31T07:06:25;8.43;;;6.47;;
2257;SDS011;1136;51.574;7.706;2023-07-31T07:09:31;8.47;;;6.27;;
2257;SDS011;1136;51.574;7.706;2023-07-31T07:12:38;8.20;;;7.00;;
2257;SDS011;1136;51.574;7.706;2023-07-31T07:15:48;8.50;;;6.20;;
2257;SDS011;1136;51.574;7.706;2023-07-31T07:18:55;10.93;;;7.23;;
2257;SDS011;1136;51.574;7.706;2023-07-31T07:22:10;7.60;;;6.67;;
2257;SDS011;1136;51.574;7.706;2023-07-31T07:25:17;9.20;;;7.47;;
2257;SDS011;1136;51.574;7.706;2023-07-31T07:28:23;7.83;;;6.60;;
2257;SDS011;1136;51.574;7.706;2023-07-31T07:31:30;9.60;;;8.60;;
2257;SDS011;1136;51.574;7.706;2023-07-31T07:34:37;10.00;;;6.43;;
2257;SDS011;1136;51.574;7.706;2023-07-31T07:37:44;6.80;;;5.70;;
2257;SDS011;1136;51.574;7.706;2023-07-31T07:40:50;7.80;;;5.63;;
2257;SDS011;1136;51.574;7.706;2023-07-31T07:43:59;5.03;;;4.50;;
2257;SDS011;1136;51.574;7.706;2023-07-31T07:47:05;7.13;;;5.20;;
2257;SDS011;1136;51.574;7.706;2023-07-31T07:50:12;6.63;;;5.40;;
2257;SDS011;1136;51.574;7.706;2023-07-31T07:53:19;8.87;;;5.47;;
2257;SDS011;1136;51.574;7.706;2023-07-31T07:56:26;8.03;;;5.10;;
2257;SDS011;1136;51.574;7.706;2023-07-31T07:59:33;7.27;;;5.03;;
2257;SDS011;1136;51.574;7.706;2023-07-31T08:02:40;7.53;;;5.77;;
2257;SDS011;1136;51.574;7.706;2023-07-31T08:05:46;7.60;;;5.00;;
2257;SDS011;1136;51.574;7.706;2023-07-31T08:08:53;8.60;;;5.40;;
2257;SDS011;1136;51.574;7.706;2023-07-31T08:11:59;6.03;;;5.27;;
2257;SDS011;1136;51.574;7.706;2023-07-31T08:15:09;8.93;;;5.50;;
2257;SDS011;1136;51.574;7.706;2023-07-31T08:18:14;6.43;;;5.93;;
2257;SDS011;1136;51.574;7.706;2023-07-31T08:21:21;5.77;;;5.27;;
2257;SDS011;1136;51.574;7.706;2023-07-31T08:24:28;5.87;;;5.30;;
2257;SDS011;1136;51.574;7.706;2023-07-31T08:27:36;8.53;;;5.43;;
2257;SDS011;1136;51.574;7.706;2023-07-31T08:30:43;5.50;;;5.00;;
2257;SDS011;1136;51.574;7.706;2023-07-31T08:33:50;5.43;;;4.40;;
2257;SDS011;1136;51.574;7.706;2023-07-31T08:36:58;5.43;;;4.67;;
2257;SDS011;1136;51.574;7.706;2023-07-31T08:40:05;5.73;;;5.10;;
2257;SDS011;1136;51.574;7.706;2023-07-31T08:43:13;5.90;;;4.10;;
2257;SDS011;1136;51.574;7.706;2023-07-31T08:46:20;5.33;;;4.83;;
2257;SDS011;1136;51.574;7.706;2023-07-31T08:49:28;12.63;;;4.77;;
2257;SDS011;1136;51.574;7.706;2023-07-31T08:52:36;6.07;;;4.70;;
2257;SDS011;1136;51.574;7.706;2023-07-31T08:55:44;5.30;;;4.80;;
2257;SDS011;1136;51.574;7.706;2023-07-31T08:58:51;6.53;;;4.47;;
2257;SDS011;1136;51.574;7.706;2023-07-31T09:02:02;4.47;;;4.03;;
2257;SDS011;1136;51.574;7.706;2023-07-31T09:05:13;5.87;;;4.60;;
2257;SDS011;1136;51.574;7.706;2023-07-31T09:08:21;5.10;;;4.60;;
2257;SDS011;1136;51.574;7.706;2023-07-31T09:11:28;8.73;;;4.67;;
2257;SDS011;1136;51.574;7.706;2023-07-31T09:14:36;4.67;;;4.30;;
2257;SDS011;1136;51.574;7.706;2023-07-31T09:17:44;4.03;;;3.73;;
2257;SDS011;1136;51.574;7.706;2023-07-31T09:21:04;5.17;;;3.73;;
2257;SDS011;1136;51.574;7.706;2023-07-31T09:24:12;4.47;;;3.43;;
2257;SDS011;1136;51.574;7.706;2023-07-31T09:27:42;6.23;;;3.83;;
2257;SDS011;1136;51.574;7.706;2023-07-31T09:30:53;3.80;;;3.50;;
2257;SDS011;1136;51.574;7.706;2023-07-31T09:34:00;3.70;;;3.30;;
2257;SDS011;1136;51.574;7.706;2023-07-31T09:37:07;6.03;;;3.93;;
2257;SDS011;1136;51.574;7.706;2023-07-31T09:40:24;3.90;;;3.57;;
2257;SDS011;1136;51.574;7.706;2023-07-31T09:43:35;4.23;;;3.90;;
2257;SDS011;1136;51.574;7.706;2023-07-31T09:46:45;4.73;;;4.13;;
2257;SDS011;1136;51.574;7.706;2023-07-31T09:49:52;4.60;;;3.83;;
2257;SDS011;1136;51.574;7.706;2023-07-31T09:53:00;5.50;;;5.00;;
2257;SDS011;1136;51.574;7.706;2023-07-31T09:56:07;6.00;;;4.83;;
2257;SDS011;1136;51.574;7.706;2023-07-31T09:59:15;5.33;;;4.30;;
2257;SDS011;1136;51.574;7.706;2023-07-31T10:02:28;4.20;;;3.80;;
2257;SDS011;1136;51.574;7.706;2023-07-31T10:05:40;5.20;;;4.63;;
2257;SDS011;1136;51.574;7.706;2023-07-31T10:08:50;6.70;;;5.07;;
2257;SDS011;1136;51.574;7.706;2023-07-31T10:12:02;8.20;;;5.60;;
2257;SDS011;1136;51.574;7.706;2023-07-31T10:15:12;5.90;;;4.97;;
2257;SDS011;1136;51.574;7.706;2023-07-31T10:18:20;5.60;;;4.10;;
2257;SDS011;1136;51.574;7.706;2023-07-31T10:21:27;10.33;;;5.33;;
2257;SDS011;1136;51.574;7.706;2023-07-31T10:24:35;6.13;;;5.20;;
2257;SDS011;1136;51.574;7.706;2023-07-31T10:27:44;9.77;;;6.00;;
2257;SDS011;1136;51.574;7.706;2023-07-31T10:30:52;6.30;;;5.70;;
2257;SDS011;1136;51.574;7.706;2023-07-31T10:33:59;5.57;;;4.47;;
2257;SDS011;1136;51.574;7.706;2023-07-31T10:37:28;4.23;;;3.83;;
2257;SDS011;1136;51.574;7.706;2023-07-31T10:40:36;4.30;;;3.77;;
2257;SDS011;1136;51.574;7.706;2023-07-31T10:43:45;4.10;;;3.50;;
2257;SDS011;1136;51.574;7.706;2023-07-31T10:46:54;4.17;;;3.77;;
2257;SDS011;1136;51.574;7.706;2023-07-31T10:53:42;4.80;;;3.70;;
2257;SDS011;1136;51.574;7.706;2023-07-31T10:56:52;2.40;;;2.20;;
2257;SDS011;1136;51.574;7.706;2023-07-31T11:00:17;3.00;;;2.50;;
2257;SDS011;1136;51.574;7.706;2023-07-31T11:03:42;2.10;;;2.00;;
2257;SDS011;1136;51.574;7.706;2023-07-31T11:06:59;2.70;;;2.50;;
2257;SDS011;1136;51.574;7.706;2023-07-31T11:10:07;2.40;;;2.27;;
2257;SDS011;1136;51.574;7.706;2023-07-31T11:13:14;2.90;;;2.70;;
2257;SDS011;1136;51.574;7.706;2023-07-31T11:16:23;3.53;;;2.57;;
2257;SDS011;1136;51.574;7.706;2023-07-31T11:19:31;4.73;;;2.10;;
2257;SDS011;1136;51.574;7.706;2023-07-31T11:22:38;3.40;;;2.70;;
2257;SDS011;1136;51.574;7.706;2023-07-31T11:25:46;3.43;;;2.60;;
2257;SDS011;1136;51.574;7.706;2023-07-31T11:28:53;2.27;;;2.07;;
2257;SDS011;1136;51.574;7.706;2023-07-31T11:32:01;3.37;;;2.60;;
2257;SDS011;1136;51.574;7.706;2023-07-31T11:35:13;2.30;;;2.10;;
2257;SDS011;1136;51.574;7.706;2023-07-31T11:38:21;2.70;;;2.17;;
2257;SDS011;1136;51.574;7.706;2023-07-31T11:40:52;2.43;;;2.23;;
2257;SDS011;1136;51.574;7.706;2023-07-31T11:43:20;3.07;;;2.87;;
2257;SDS011;1136;51.574;7.706;2023-07-31T11:45:48;2.70;;;2.50;;
2257;SDS011;1136;51.574;7.706;2023-07-31T11:48:19;3.67;;;2.57;;
2257;SDS011;1136;51.574;7.706;2023-07-31T11:50:47;7.07;;;3.30;;
2257;SDS011;1136;51.574;7.706;2023-07-31T11:53:16;3.17;;;2.97;;
2257;SDS011;1136;51.574;7.706;2023-07-31T11:55:43;2.97;;;2.77;;
2257;SDS011;1136;51.574;7.706;2023-07-31T11:58:10;6.20;;;3.07;;
2257;SDS011;1136;51.574;7.706;2023-07-31T12:00:37;3.57;;;2.90;;
2257;SDS011;1136;51.574;7.706;2023-07-31T12:03:04;3.30;;;3.10;;
2257;SDS011;1136;51.574;7.706;2023-07-31T12:05:31;5.00;;;3.43;;
2257;SDS011;1136;51.574;7.706;2023-07-31T12:07:58;3.90;;;3.70;;
2257;SDS011;1136;51.574;7.706;2023-07-31T12:10:31;3.90;;;3.57;;
2257;SDS011;1136;51.574;7.706;2023-07-31T12:15:38;4.87;;;3.27;;
2257;SDS011;1136;51.574;7.706;2023-07-31T12:18:06;4.33;;;3.93;;
2257;SDS011;1136;51.574;7.706;2023-07-31T12:20:34;4.67;;;4.27;;
2257;SDS011;1136;51.574;7.706;2023-07-31T12:23:01;4.73;;;4.13;;
2257;SDS011;1136;51.574;7.706;2023-07-31T12:25:29;6.03;;;4.40;;
2257;SDS011;1136;51.574;7.706;2023-07-31T12:27:57;4.97;;;4.40;;
2257;SDS011;1136;51.574;7.706;2023-07-31T12:30:28;4.80;;;4.40;;
2257;SDS011;1136;51.574;7.706;2023-07-31T12:33:02;4.87;;;4.40;;
2257;SDS011;1136;51.574;7.706;2023-07-31T12:35:46;5.13;;;4.70;;
2257;SDS011;1136;51.574;7.706;2023-07-31T12:38:13;4.37;;;4.07;;
2257;SDS011;1136;51.574;7.706;2023-07-31T12:40:41;3.60;;;3.30;;
2257;SDS011;1136;51.574;7.706;2023-07-31T12:43:08;5.80;;;4.37;;
2257;SDS011;1136;51.574;7.706;2023-07-31T12:45:35;3.53;;;3.23;;
2257;SDS011;1136;51.574;7.706;2023-07-31T12:48:02;4.67;;;3.70;;
2257;SDS011;1136;51.574;7.706;2023-07-31T12:50:28;5.17;;;3.23;;
2257;SDS011;1136;51.574;7.706;2023-07-31T12:52:55;5.37;;;3.60;;
2257;SDS011;1136;51.574;7.706;2023-07-31T12:55:23;4.00;;;3.50;;
2257;SDS011;1136;51.574;7.706;2023-07-31T12:57:50;3.70;;;3.20;;
2257;SDS011;1136;51.574;7.706;2023-07-31T13:00:17;4.83;;;3.97;;
2257;SDS011;1136;51.574;7.706;2023-07-31T13:02:43;3.80;;;3.50;;
2257;SDS011;1136;51.574;7.706;2023-07-31T13:05:10;4.57;;;3.60;;
2257;SDS011;1136;51.574;7.706;2023-07-31T13:07:37;5.43;;;3.10;;
2257;SDS011;1136;51.574;7.706;2023-07-31T13:10:05;4.93;;;3.10;;
2257;SDS011;1136;51.574;7.706;2023-07-31T13:12:33;3.97;;;2.90;;
2257;SDS011;1136;51.574;7.706;2023-07-31T13:15:00;3.87;;;3.33;;
2257;SDS011;1136;51.574;7.706;2023-07-31T13:17:26;3.47;;;3.20;;
2257;SDS011;1136;51.574;7.706;2023-07-31T13:19:53;3.13;;;2.83;;
2257;SDS011;1136;51.574;7.706;2023-07-31T13:22:20;3.60;;;3.30;;
2257;SDS011;1136;51.574;7.706;2023-07-31T13:24:46;2.63;;;2.43;;
2257;SDS011;1136;51.574;7.706;2023-07-31T13:27:14;2.30;;;2.20;;
2257;SDS011;1136;51.574;7.706;2023-07-31T13:29:45;5.43;;;3.37;;
2257;SDS011;1136;51.574;7.706;2023-07-31T13:32:11;2.90;;;2.70;;
2257;SDS011;1136;51.574;7.706;2023-07-31T13:34:38;3.60;;;2.93;;
2257;SDS011;1136;51.574;7.706;2023-07-31T13:37:05;3.17;;;2.97;;
2257;SDS011;1136;51.574;7.706;2023-07-31T13:39:34;2.63;;;2.43;;
2257;SDS011;1136;51.574;7.706;2023-07-31T13:42:02;3.77;;;2.77;;
2257;SDS011;1136;51.574;7.706;2023-07-31T13:44:29;2.87;;;2.60;;
2257;SDS011;1136;51.574;7.706;2023-07-31T13:46:56;4.57;;;3.10;;
2257;SDS011;1136;51.574;7.706;2023-07-31T13:49:22;3.70;;;3.30;;
2257;SDS011;1136;51.574;7.706;2023-07-31T13:51:49;3.60;;;2.83;;
2257;SDS011;1136;51.574;7.706;2023-07-31T13:54:15;3.40;;;3.10;;
2257;SDS011;1136;51.574;7.706;2023-07-31T13:56:42;3.67;;;3.10;;
2257;SDS011;1136;51.574;7.706;2023-07-31T13:59:10;3.13;;;2.83;;
2257;SDS011;1136;51.574;7.706;2023-07-31T14:01:37;3.10;;;2.50;;
2257;SDS011;1136;51.574;7.706;2023-07-31T14:04:04;2.87;;;2.53;;
2257;SDS011;1136;51.574;7.706;2023-07-31T14:06:30;2.40;;;2.30;;
2257;SDS011;1136;51.574;7.706;2023-07-31T14:08:57;2.50;;;2.30;;
2257;SDS011;1136;51.574;7.706;2023-07-31T14:11:24;2.67;;;2.47;;
2257;SDS011;1136;51.574;7.706;2023-07-31T14:13:50;2.63;;;2.50;;
2257;SDS011;1136;51.574;7.706;2023-07-31T14:16:17;2.80;;;2.60;;
2257;SDS011;1136;51.574;7.706;2023-07-31T14:18:44;2.00;;;1.90;;
2257;SDS011;1136;51.574;7.706;2023-07-31T14:21:12;2.97;;;2.73;;
2257;SDS011;1136;51.574;7.706;2023-07-31T14:23:39;3.60;;;2.23;;
2257;SDS011;1136;51.574;7.706;2023-07-31T14:26:06;3.60;;;3.07;;
2257;SDS011;1136;51.574;7.706;2023-07-31T14:28:33;2.43;;;2.33;;
2257;SDS011;1136;51.574;7.706;2023-07-31T14:30:59;2.87;;;2.67;;
2257;SDS011;1136;51.574;7.706;2023-07-31T14:33:26;2.10;;;2.00;;
2257;SDS011;1136;51.574;7.706;2023-07-31T14:35:53;2.50;;;2.30;;
2257;SDS011;1136;51.574;7.706;2023-07-31T14:38:20;6.93;;;4.30;;
2257;SDS011;1136;51.574;7.706;2023-07-31T14:40:47;9.80;;;7.13;;
2257;SDS011;1136;51.574;7.706;2023-07-31T14:43:13;10.50;;;9.60;;
2257;SDS011;1136;51.574;7.706;2023-07-31T14:45:40;2.87;;;2.63;;
2257;SDS011;1136;51.574;7.706;2023-07-31T14:48:07;2.97;;;2.77;;
2257;SDS011;1136;51.574;7.706;2023-07-31T14:50:34;3.57;;;2.53;;
2257;SDS011;1136;51.574;7.706;2023-07-31T14:53:00;3.80;;;3.50;;
2257;SDS011;1136;51.574;7.706;2023-07-31T14:55:27;3.73;;;3.30;;
2257;SDS011;1136;51.574;7.706;2023-07-31T14:57:57;6.23;;;2.93;;
2257;SDS011;1136;51.574;7.706;2023-07-31T15:00:23;3.70;;;3.40;;
2257;SDS011;1136;51.574;7.706;2023-07-31T15:02:50;6.13;;;3.67;;
2257;SDS011;1136;51.574;7.706;2023-07-31T15:05:17;8.93;;;3.57;;
2257;SDS011;1136;51.574;7.706;2023-07-31T15:07:44;4.77;;;3.30;;
2257;SDS011;1136;51.574;7.706;2023-07-31T15:10:10;4.20;;;3.77;;
2257;SDS011;1136;51.574;7.706;2023-07-31T15:12:37;3.47;;;3.27;;
2257;SDS011;1136;51.574;7.706;2023-07-31T15:15:06;6.03;;;3.50;;
2257;SDS011;1136;51.574;7.706;2023-07-31T15:17:33;5.97;;;3.93;;
2257;SDS011;1136;51.574;7.706;2023-07-31T15:20:00;4.30;;;3.90;;
2257;SDS011;1136;51.574;7.706;2023-07-31T15:22:29;3.80;;;3.50;;
2257;SDS011;1136;51.574;7.706;2023-07-31T15:24:56;8.20;;;4.70;;
2257;SDS011;1136;51.574;7.706;2023-07-31T15:27:23;5.27;;;4.87;;
2257;SDS011;1136;51.574;7.706;2023-07-31T15:29:50;7.17;;;5.20;;
2257;SDS011;1136;51.574;7.706;2023-07-31T15:32:18;6.83;;;4.37;;
2257;SDS011;1136;51.574;7.706;2023-07-31T15:34:45;4.53;;;3.63;;
2257;SDS011;1136;51.574;7.706;2023-07-31T15:37:12;3.40;;;3.20;;
2257;SDS011;1136;51.574;7.706;2023-07-31T15:39:38;4.00;;;3.03;;
2257;SDS011;1136;51.574;7.706;2023-07-31T15:42:05;4.30;;;3.90;;
2257;SDS011;1136;51.574;7.706;2023-07-31T15:44:32;4.33;;;3.80;;
2257;SDS011;1136;51.574;7.706;2023-07-31T15:46:58;5.03;;;4.20;;
2257;SDS011;1136;51.574;7.706;2023-07-31T15:49:25;3.47;;;3.23;;
2257;SDS011;1136;51.574;7.706;2023-07-31T15:51:52;4.20;;;3.00;;
2257;SDS011;1136;51.574;7.706;2023-07-31T15:54:18;5.00;;;3.33;;
2257;SDS011;1136;51.574;7.706;2023-07-31T15:56:45;6.33;;;3.87;;
2257;SDS011;1136;51.574;7.706;2023-07-31T15:59:11;3.87;;;3.47;;
2257;SDS011;1136;51.574;7.706;2023-07-31T16:01:38;5.13;;;4.00;;
2257;SDS011;1136;51.574;7.706;2023-07-31T16:04:05;4.53;;;3.37;;
2257;SDS011;1136;51.574;7.706;2023-07-31T16:06:32;3.60;;;3.30;;
2257;SDS011;1136;51.574;7.706;2023-07-31T16:09:01;4.10;;;3.70;;
2257;SDS011;1136;51.574;7.706;2023-07-31T16:11:27;6.63;;;3.30;;
2257;SDS011;1136;51.574;7.706;2023-07-31T16:13:54;3.93;;;3.63;;
2257;SDS011;1136;51.574;7.706;2023-07-31T16:16:21;6.30;;;3.60;;
2257;SDS011;1136;51.574;7.706;2023-07-31T16:18:48;5.43;;;4.27;;
2257;SDS011;1136;51.574;7.706;2023-07-31T16:21:15;5.20;;;4.53;;
2257;SDS011;1136;51.574;7.706;2023-07-31T16:23:41;5.20;;;4.10;;
2257;SDS011;1136;51.574;7.706;2023-07-31T16:26:08;5.10;;;4.60;;
2257;SDS011;1136;51.574;7.706;2023-07-31T16:28:35;8.80;;;3.83;;
2257;SDS011;1136;51.574;7.706;2023-07-31T16:31:01;5.30;;;4.00;;
2257;SDS011;1136;51.574;7.706;2023-07-31T16:33:28;3.30;;;3.10;;
2257;SDS011;1136;51.574;7.706;2023-07-31T16:35:55;4.20;;;3.80;;
2257;SDS011;1136;51.574;7.706;2023-07-31T16:38:21;3.90;;;3.60;;
2257;SDS011;1136;51.574;7.706;2023-07-31T16:40:48;4.80;;;4.03;;
2257;SDS011;1136;51.574;7.706;2023-07-31T16:43:15;7.10;;;5.57;;
2257;SDS011;1136;51.574;7.706;2023-07-31T16:45:42;4.60;;;4.20;;
2257;SDS011;1136;51.574;7.706;2023-07-31T16:48:13;4.20;;;3.80;;
2257;SDS011;1136;51.574;7.706;2023-07-31T16:50:40;4.57;;;3.80;;
2257;SDS011;1136;51.574;7.706;2023-07-31T16:53:06;4.30;;;3.90;;
2257;SDS011;1136;51.574;7.706;2023-07-31T16:55:33;4.50;;;4.13;;
2257;SDS011;1136;51.574;7.706;2023-07-31T16:58:00;4.83;;;4.43;;
2257;SDS011;1136;51.574;7.706;2023-07-31T17:00:27;5.23;;;4.47;;
2257;SDS011;1136;51.574;7.706;2023-07-31T17:02:54;5.30;;;4.83;;
2257;SDS011;1136;51.574;7.706;2023-07-31T17:05:22;6.60;;;4.80;;
2257;SDS011;1136;51.574;7.706;2023-07-31T17:07:48;5.20;;;4.63;;
2257;SDS011;1136;51.574;7.706;2023-07-31T17:10:15;6.13;;;5.63;;
2257;SDS011;1136;51.574;7.706;2023-07-31T17:12:42;5.70;;;5.20;;
2257;SDS011;1136;51.574;7.706;2023-07-31T17:15:09;4.73;;;4.33;;
2257;SDS011;1136;51.574;7.706;2023-07-31T17:17:35;4.60;;;4.20;;
2257;SDS011;1136;51.574;7.706;2023-07-31T17:20:02;5.53;;;5.00;;
2257;SDS011;1136;51.574;7.706;2023-07-31T17:22:29;5.37;;;4.87;;
2257;SDS011;1136;51.574;7.706;2023-07-31T17:25:13;5.77;;;5.27;;
2257;SDS011;1136;51.574;7.706;2023-07-31T17:27:40;5.47;;;5.00;;
2257;SDS011;1136;51.574;7.706;2023-07-31T17:30:06;6.70;;;4.47;;
2257;SDS011;1136;51.574;7.706;2023-07-31T17:32:33;8.27;;;5.30;;
2257;SDS011;1136;51.574;7.706;2023-07-31T17:35:00;5.13;;;4.63;;
2257;SDS011;1136;51.574;7.706;2023-07-31T17:37:27;4.90;;;4.50;;
2257;SDS011;1136;51.574;7.706;2023-07-31T17:39:53;4.83;;;4.50;;
2257;SDS011;1136;51.574;7.706;2023-07-31T17:42:20;6.40;;;4.40;;
2257;SDS011;1136;51.574;7.706;2023-07-31T17:44:46;4.03;;;3.73;;
2257;SDS011;1136;51.574;7.706;2023-07-31T17:47:13;5.30;;;4.80;;
2257;SDS011;1136;51.574;7.706;2023-07-31T17:49:40;4.77;;;4.30;;
2257;SDS011;1136;51.574;7.706;2023-07-31T17:52:06;4.57;;;4.27;;
2257;SDS011;1136;51.574;7.706;2023-07-31T17:54:33;8.10;;;4.53;;